Terminal Aerodrome Forecast
Issued by NWS Charleston, WV

Current Version | Previous Version | Graphics & Text | Print | Product List | Glossary On
Versions: 1 2 3 4 5 6 7 8 9 10 11 12 13 14 15 16 17 18 19 20 21 22 23 24 25 26 27 28 29
000
FTUS41 KRLX 180800 AAA
TAFCRW
TAF AMD
KCRW 180857Z 1809/1906 00000KT 5SM SHRA VCTS SCT001 OVC045CB
     FM181200 14006KT 5SM +SHRA VCTS OVC025CB
     FM181400 16006KT 2SM +SHRA BR OVC015
     FM181700 20005KT 3SM +SHRA BR VCTS OVC012CB
     FM182300 22004KT P6SM VCTS BKN025CB
     FM190400 VRB03KT P6SM BKN025=

USA.gov is the U.S. government's official web portal to all federal, state and local government web resources and services.